今日のアクセス数今日のアクセス数

    岡山グライダークラブ活動状況掲示板あなたは無料カウンター人目の訪問者です

岡山グライダークラブ
岡山市浦安南町639-1 岡南飛行場
 使用機:シャイベ式 SF25C型 ファルケ   JA2330
      ヴァレンティン式17E型 タイフーン  JA2342
 練習日:毎日曜日  クラブルーム:電話 086-265-1810
この掲示板は岡山グライダークラブの活動状況をお知らせする掲示板です。
!!!この掲示板は投稿規制をしています。!!!
クラブ関連各種情報は 岡山グライダークラブクラブルーム      を       .
  ブリーフイング情報は  岡山グライダークラブブリーフィングルーム  をご覧下さい。 .
※写真はクリックすると拡大して見ることが出来ます。
岡南飛行場へのアクセス等は 岡南飛行場管理事務所 をご覧ください。
クラブの ホームページ ができました。

ページ 1 (1〜10)ホームページへ戻る

06月16日
by OGC at 2019/6/16(日) 19:55:26 No.20190616194934 コメント】  削除 引用
1024 x 768 x 88,963バイト
No.1

06月16日
本日の参加者
  会員      14名
  その他      2名


@本日の様子




METAR
RJOB 160000Z 26006KT 9999 FEW015 BKN025 20/15 Q1002
RJOT 160000Z 26015KT 9999 FEW010 SCT020 22/17 Q1002
RJOA 160000Z 26007KT 9999 FEW015 BKN025 19/14 Q1004
TAF
RJOB 152311Z 1600/1706 30010KT 9999 FEW025 SCT035
         BECMG 1615/1618 35004KT
         BECMG 1700/1703 22006KT
RJOT 152312Z 1600/1706 26015KT 9999 FEW020 BKN040
         BECMG 1610/1612 22005KT
RJOA 152305Z 1600/1706 30012KT 9999 FEW020 SCT035
         BECMG 1618/1621 02004KT
         BECMG 1700/1703 20005KT



本日は、朝とお昼ごろに局地的な雨が降り、急遽、格納庫にグライダーを格納するハプニングもありましたが、いい横風離着陸の練習日和でした。
訓練生は、いつも通りTGLやソアリング。一方、ライセンサーは、いいサーマルを期待して探しに行ってはみましたが、、、う〜ん、腕か運かよくわかりませんが、いいサーマルを捕まえることができませんでした。(^-^;


解散    18:00

1番機  10:50離陸 撤収機  17:20着陸 

SF25C JA2330 ファルケ     10Flt.3h30min  
17E   JA2342 タイフーン    04Flt.1h35min  
合計                    14Flt.5h05min
06月09日
by OGC at 2019/6/9(日) 20:43:39 No.20190609203659 コメント】  削除 引用
1024 x 768 x 93,635バイト
No.1

06月09日
本日の参加者
  会員      12名
  その他      0名


@本日の様子




METAR
RJBK 090000Z 05004KT 360V090 30KM FEW030CU BKN/// 21/14 Q1006 A2972
RJOB 090000Z 08006KT 030V120 9999 FEW020 SCT025 BKN/// 19/12 Q1006
RJOT 090000Z 05010KT 020V100 9999 FEW025 BKN/// 21/14 Q1006
RJOA 090000Z 11005KT 050V180 9999 FEW025 SCT/// 18/11 Q1006
TAF
RJOB 082309Z 0900/1006 13005KT 9999 FEW030
RJOT 082312Z 0900/1006 06012KT 9999 FEW030 SCT060
         BECMG 0909/0911 15004KT
RJOA 082307Z 0900/1006 15006KT 9999 FEW030



本日は、晴れ風もほぼ正対風、絶好の着陸練習日和でした。
訓練生は、高松空港へNAV訓練に行ったり、岡南飛行場でいつも通りTGLをやったりしていました。一方、ライセンサーは、今週もサーマル探しに行ってはみましたが、、、上昇できそうなところは見当たりませんでした。


解散    18:30

1番機  10:25離陸 撤収機  17:45着陸 

SF25C JA2330 ファルケ     11Flt.4h10min  
17E   JA2342 タイフーン    03Flt.1h35min  
合計                    14Flt.5h45min

06月02日
by OGC at 2019/6/3(月) 00:00:48 No.20190602235348 コメント】  削除 引用
1024 x 768 x 66,964バイト
No.1

06月02日
本日の参加者
  会員      14名
  その他      0名


@本日の様子




METAR
RJBK 020000Z 06005KT 10KM FEW025CU SCT170AC BKN/// 20/10 Q1009 A2981
RJOB 020000Z 09004KT 9999 FEW020 SCT150 BKN160 18/14 Q1009
RJOT 020000Z 08005KT 3500 BR FEW003 BKN150 19/18 Q1010
RJOA 020000Z 10003KT 070V160 9999 FEW025 BKN130 19/11 Q1010
TAF
RJOB 012308Z 0200/0306 11009KT 9999 FEW020
       BECMG 0303/0306 18007KT
RJOT 012331Z 0200/0306 07007KT 7000 FEW030
       TEMPO 0200/0204 4000 BR
RJOA 012305Z 0200/0306 12006KT 9999 FEW030



本日は、曇りで風もほぼ正対風で弱く、絶好の着陸練習日和でした。
訓練生はいつも通りTGLやノースポイラの着陸練習を行い、ライセンサーはサーマル探しに行ってはみましたが、、、上昇できそうなところは見当たりませんでした。


解散    17:30

1番機  10:25離陸 撤収機  17:00着陸 

SF25C JA2330 ファルケ     11Flt.3h35min  
17E   JA2342 タイフーン    04Flt.1h05min  
合計                    15Flt.4h40min

05月26日
by OGC at 2019/5/27(月) 00:04:12 No.20190527000052 コメント】  削除 引用
1024 x 768 x 66,614バイト
No.1

05月26日
本日の参加者
  会員      13名
  その他      1名


@本日の様子




METAR
RJBK 260000Z VRB02KT 10KM BKN/// 23/17 Q1019 A3009
RJOB 260000Z 12003KT 080V160 CAVOK 22/17 Q1019
RJOT 260000Z 35003KT 270V040 CAVOK 24/13 Q1019
RJOA 260000Z 15003KT 120V190 CAVOK 22/10 Q1020
TAF
RJOB  252307Z 2600/2706 22007KT CAVOK
         BECMG 2612/2615 03004KT
         BECMG 2700/2703 19008KT
RJOT  252308Z 2600/2706 33006KT 9999 FEW030
         BECMG 2610/2612 15006KT
         BECMG 2700/2703 32004KT
RJOA 252305Z 2600/2706 21006KT 9999 FEW035


本日は、野焼きの影響で3000ft付近の視程が今一つでしたが、風が弱く着陸練習日和。
訓練生はTGL等、ライセンサーはサーマルを探しに行っていました。


解散    17:30

1番機  10:35離陸 撤収機  16:35着陸 

SF25C JA2330 ファルケ     08Flt.4h00min  
17E   JA2342 タイフーン    04Flt.1h50min  
合計                    12Flt.5h50min
05月19日
by OGC at 2019/5/19(日) 22:25:25 No.20190519222220 コメント】  削除 引用
1024 x 768 x 102,936バイト
No.1

05月19日
本日の参加者
  会員      13名
  その他      0名


@本日の様子




METAR
RJBK 190500Z 11014G25KT 25KM FEW030CU SCT060SC BKN/// 23/14 Q1014 A2996
RJOB 190500Z 11015G28KT 080V150 9999 FEW025 SCT030 BKN060 22/14 Q1015
RJOT 190500Z VRB08G19KT 9999 FEW025 BKN/// 24/14 Q1014
RJOA 190500Z 13008KT 080V170 9999 FEW030 SCT050 BKN120 22/11 Q1015
TAF
RJOB 182306Z 1900/2006 13014KT 9999 FEW025 SCT035
     TEMPO 1918/2000 4000 -RA BR BCFG FEW000 BKN008 BKN015
     TEMPO 2000/2006 11016G27KT 4000 -RA BR BCFG FEW000 BKN008 BKN015
RJOT 182308Z 1900/2006 09009KT 9999 FEW025
RJOA 182308Z 1900/2006 10010KT 9999 FEW020 SCT030
     TEMPO 1912/1921 4000 -RA BR BCFG FEW000 BKN008 BKN015

本日は朝から強風で収まるのを待ちましたが、なかなか、風が収まらなかったため、本日のフライトを断念しました。
その間、久々にみんなで昼食、学科の勉強、ログの整理、格納庫の整理、整頓等を行いました。


解散    15:30


本日のフライトはありません。
05月12日
by OGC at 2019/5/12(日) 23:04:32 No.20190512230348 コメント】  削除 引用
1477 x 1108 x 101,033バイト <この画像は大きいので別画面で表示します>
No.1

05月12日
本日の参加者
  会員      13名
  その他      2名


@本日の様子




METAR
RJBK 120100Z 16003KT 110V200 25KM BKN/// 22/10 Q1016 A3000
RJOB 120100Z VRB01KT CAVOK 22/07 Q1016
RJOT 120100Z 05008KT 020V090 9999 FEW030 SCT/// 23/06 Q1016
RJOA 120100Z 11004KT 080V160 CAVOK 22/02 Q1016
TAF
RJOB 112307Z 1200/1306 14004KT 9999 FEW030
     BECMG 1203/1205 20005KT
     BECMG 1208/1210 02005KT
RJOT 112308Z 1200/1306 04007KT 9999 FEW035
RJOA 112307Z 1200/1306 14006KT 9999 FEW035
     BECMG 1208/1210 34005KT
     BECMG 1215/1218 06006KT

本日は、穏やかな南風で気温が30℃近くまで上昇する中、訓練生はTGLや課目フライト、ライセンサーは四国方面へのナビへと次々と出かけていました。
また、本日も体験見学者が2名来られました。


解散    18:30

1番機  10:50離陸 撤収機  17:55着陸 

SF25C JA2330 ファルケ     12Flt.3h50min  
17E   JA2342 タイフーン    04Flt.2h20min  
合計                    16Flt.6h10min
05月05日
by OGC at 2019/5/5(日) 20:42:50 No.20190505202426 コメント】  削除 引用
1477 x 1108 x 78,467バイト <この画像は大きいので別画面で表示します>
No.1

05月05日
本日の参加者
  会員      14名
  その他      1名


@本日の様子




METAR
RJOB 050000Z 08004KT 010V150 CAVOK 18/05 Q1020
RJOT 050000Z 03004KT CAVOK 17/11 Q1020
RJOA 050000Z 11004KT 050V210 CAVOK 18/03 Q1020
TAF
RJOB 042305Z 0500/0606 13006KT 9999 FEW035
     BECMG 0521/0600 22010KT
     BECMG 0603/0606 28010KT
RJOT 042314Z 0500/0606 04006KT 9999 FEW030
     BECMG 0521/0600 27008KT
RJOA 042313Z 0500/0606 15004KT 9999 FEW035
     BECMG 0501/0503 20006KT

天候は晴れ風も弱く、今日も着陸訓練日和、訓練生は、ファルケでいつも通りTGLや空中操作の練習、ライセンサーは、タイフーンで、先週、確認できなかった加古川のパラグライダーの離陸場の確認や玉野のパラグライダーを見に出かけていました。
あと、先週、体験搭乗された方の入会が決まりました。(^_^)v

また、岡南飛行場では、日本で初めてのホンダジェットが試験フライトを行っていました。


解散    18:00

1番機  11:10離陸 撤収機  17:15着陸 

SF25C JA2330 ファルケ     10Flt.3h15min  
17E   JA2342 タイフーン    04Flt.2h25min  
合計                    14Flt.5h40min
04月28日
by OGC at 2019/4/29(月) 00:34:19 No.20190429002851 コメント】  削除 引用
1024 x 768 x 92,959バイト
No.1

04月28日
本日の参加者
  会員      13名
  その他      4名


@本日の様子




METAR
RJBK 280100Z VRB01KT 30KM FEW035CU SCT150AC BKN/// 11/05 Q1043 A3021
RJOB 280100Z VRB03KT 9999 FEW025 BKN/// 12/04 Q1022
RJOT 280100Z 05009KT 9999 FEW025 SCT180 BKN/// 13/01 Q1023
RJOA 280100Z 14007KT 100V180 9999 FEW030 BKN/// 11/01 Q1022
TAF
RJOB 272305Z 2800/2906 08004KT 9999 FEW030
         BECMG 2801/2803 20005KT
         BECMG 2810/2812 04004KT
RJOT 272308Z 2800/2906 06005KT 9999 FEW030
RJOA 272306Z 2800/2906 14005KT 9999 FEW030

天候は曇り、弱い風、絶好の着陸訓練日和。訓練生は、ファルケでいつも通りTGLを繰り返していました。
ライセンサーは、タイフーンでいつも通りサーマルを探したり、加古川やRJOBまでいっていました。
本日は見学者が2組あり、またまた、会員が増えそうです。。。(^_^)v


解散    17:40

1番機  11:05離陸 撤収機  17:15着陸 

SF25C JA2330 ファルケ     08Flt.3h25min  
17E   JA2342 タイフーン    05Flt.2h35min  
合計                    13Flt.6h00min
04月21日
by OGC at 2019/4/21(日) 23:11:46 No.20190421210418 コメント】  削除 引用
1024 x 768 x 74,853バイト
No.1

04月21日
本日の参加者
  会員      16名
  その他      4名


@本日の様子




METAR
RJBK 210000Z 12003KT 70V160 15KM FEW025CU BKN035CU 17/12 Q1013 A2994
RJOB 210000Z 10003KT 050V210 9999 FEW015 BKN020 16/10 Q1013
RJOT 210000Z 02004KT 310V060 9999 FEW030 19/11 Q1013
RJOA 210000Z 15003KT 100V250 8000 FEW015 SCT020 18/11 Q1013
TAF
RJOB 202309Z 2100/2206 20007KT 9999 FEW025
         BECMG 2110/2112 02005KT
RJOT 202308Z 2100/2206 02005KT 9999 FEW025 SCT040
RJOA  202310Z 2100/2206 20007KT 9999 FEW030
         BECMG 2121/2200 15006KT

本日は機体点検が10時前に終わりました。機体点検に手慣れてきたようです。この調子でお願いします。
天候は弱い横風で、絶好の横風着陸の訓練日和ということで、訓練生はファルケで横風着陸の練習でTGLを繰り返していました。
ライセンサーは、タイフーンでいつも通りサーマルを探したり、直島まで出て行ったりしていたようです。
本日は近年の記録更新となりました。会員の出席者が16名。。。(^_^)v


解散    18:00

1番機  10:45離陸 撤収機  17:35着陸 

SF25C JA2330 ファルケ     11Flt.3h55min  
17E   JA2342 タイフーン    05Flt.2h00min  
合計                    16Flt.5h55min
04月14日
by OGC at 2019/4/14(日) 20:57:26 No.20190414205130 コメント】  削除 引用
1024 x 768 x 75,313バイト
No.1

04月14日
本日の参加者
  会員      13名
  その他      0名


@本日の様子




METAR
RJBK 140100Z VRB02KT 25KM FEW030CU SCT040CU BKN040SC 14/09 Q1017 A3004
RJOB 140100Z 07006KT 9999 -SHRA FEW020 BKN045 BKN060 12/09 Q1017
RJOT 140100Z VRB02KT 9999 -SHRA FEW025 SCT040 BKN080 13/08 Q1017
RJOA 140100Z 31004KT 290V350 7000 -SHRA FEW010 BKN030 09/06 Q1017
TAF
RJOB 132308Z 1400/1506 10006KT 6000 -SHRA FEW003 SCT008 BKN015
         TEMPO 1400/1406 4000 SHRA BR FEW003 SCT005 BKN008
         BECMG 1403/1405 20005KT
         TEMPO 1406/1409 2000 -SHRA BR BCFG FEW000 SCT003 BKN005
RJOT 132309Z 1400/1506 03004KT 9000 -SHRA FEW015 SCT020 BKN030
         BECMG 1402/1404 4000 -SHRA BR FEW002 SCT005 BKN008
         TEMPO 1404/1409 1500 SHRA BR FEW001 BKN003 BKN005
         BECMG 1409/1411 26010KT
         TEMPO 1409/1412 1500 -SHRA BR FEW001 BKN003 BKN005
         BECMG 1412/1415 9999 NSW FEW030
RJOA 132307Z 1400/1506 09005KT 9999 FEW010 SCT020 BKN030
         TEMPO 1401/1404 3000 SHRA BR BCFG FEW000 SCT005 BKN008
         BECMG 1402/1404 21004KT
         TEMPO 1404/1408 2000 -SHRA BR BCFG FEW000 BKN005 BKN008

本日は朝から何時雨が降り出してもおかしくない天候のため、雨レーダーとにらめっこしながらの活動になりました。
降雨地域が自然に湧いてきて、雨レーダーで合間があると思っても当てにならず。雨に降られ直ぐに帰って来ていました。


解散    17:00

1番機  13:10離陸 撤収機  15:25着陸 

SF25C JA2330 ファルケ     03Flt.0h35min  
17E   JA2342 タイフーン    00Flt.0h00min  
合計                    03Flt.0h35min
ホームページへ 全 48 件 [ 1 2 3 4 5 ]

モータースポーツ | 管理者へメール | お知らせ | 一括削除
携帯から使う方法 | ヘルプ | 利用規約 | 違反報告 | 管理パネル



- 無料レンタル掲示板 -